createdAt,value
2022-08-05T00:18:32.556Z,20.60
2022-08-05T00:24:37.171Z,20.60
2022-08-05T00:41:55.135Z,20.60
2022-08-05T01:11:37.321Z,20.70
2022-08-05T01:18:23.613Z,20.60
2022-08-05T01:23:15.136Z,20.60
2022-08-05T01:29:22.962Z,20.50
2022-08-05T01:35:10.439Z,20.60
2022-08-05T01:40:13.586Z,20.50
2022-08-05T01:45:34.876Z,20.50
2022-08-05T01:51:21.617Z,20.40
2022-08-05T01:58:10.214Z,20.40
2022-08-05T02:02:10.875Z,20.30
2022-08-05T02:07:21.571Z,20.30
2022-08-05T02:13:04.884Z,20.30
2022-08-05T02:19:07.169Z,20.20
2022-08-05T02:30:07.540Z,20.10
2022-08-05T02:35:49.918Z,20.10
2022-08-05T02:47:04.137Z,20.10
2022-08-05T02:52:30.679Z,20.00
2022-08-05T03:10:24.419Z,19.80
2022-08-05T03:41:03.959Z,19.70
2022-08-05T03:45:59.021Z,19.80
2022-08-05T03:57:58.466Z,19.80
2022-08-05T04:24:19.464Z,19.60
2022-08-05T04:31:08.375Z,19.30
2022-08-05T04:38:00.743Z,19.10
2022-08-05T04:55:49.814Z,18.80
2022-08-05T05:06:57.672Z,18.70
2022-08-05T05:19:19.023Z,18.60
2022-08-05T05:24:21.745Z,18.60
2022-08-05T05:29:23.707Z,18.70
2022-08-05T05:34:43.035Z,18.70
2022-08-05T05:39:45.081Z,18.60
2022-08-05T05:44:47.152Z,18.60
2022-08-05T05:49:56.586Z,18.60
2022-08-05T05:55:13.391Z,18.60
2022-08-05T06:00:17.839Z,18.70
2022-08-05T06:05:21.298Z,18.60
2022-08-05T06:10:23.728Z,18.70
2022-08-05T06:16:28.978Z,18.70
2022-08-05T06:20:47.938Z,18.70
2022-08-05T06:26:12.530Z,18.70
2022-08-05T06:31:22.020Z,18.70
2022-08-05T06:36:26.008Z,18.70
2022-08-05T06:41:28.134Z,18.80
2022-08-05T06:46:36.596Z,18.70
2022-08-05T06:51:40.835Z,18.70
2022-08-05T06:56:55.017Z,18.80
2022-08-05T07:02:06.746Z,18.90
2022-08-05T07:07:08.739Z,19.00
2022-08-05T07:12:30.643Z,19.10
2022-08-05T07:18:00.824Z,19.20
2022-08-05T07:22:54.718Z,19.20
2022-08-05T07:28:03.886Z,19.30
2022-08-05T07:33:16.879Z,19.40
2022-08-05T07:38:32.175Z,19.40
2022-08-05T07:43:36.790Z,19.40
2022-08-05T07:49:03.717Z,19.40
2022-08-05T07:54:02.017Z,19.50
2022-08-05T07:59:04.137Z,19.50
2022-08-05T08:04:10.366Z,19.40
2022-08-05T08:09:12.464Z,19.40
2022-08-05T08:14:18.195Z,19.40
2022-08-05T08:20:10.172Z,19.60
2022-08-05T08:24:51.304Z,19.70
2022-08-05T08:30:05.986Z,19.90
2022-08-05T08:35:16.103Z,20.00
2022-08-05T08:40:21.222Z,20.00
2022-08-05T08:45:26.945Z,20.00
2022-08-05T08:51:22.807Z,20.10
2022-08-05T08:56:03.384Z,20.20
2022-08-05T09:01:10.894Z,20.30
2022-08-05T09:06:21.165Z,20.30
2022-08-05T09:11:51.112Z,20.40
2022-08-05T09:16:49.133Z,20.50
2022-08-05T09:22:23.267Z,20.70
2022-08-05T09:28:04.271Z,20.90
2022-08-05T09:33:02.409Z,21.10
2022-08-05T09:38:17.542Z,21.20
2022-08-05T09:43:40.660Z,21.20
2022-08-05T09:49:06.596Z,21.30
2022-08-05T09:54:08.603Z,21.40
2022-08-05T09:59:17.217Z,21.50
2022-08-05T10:04:19.410Z,21.70
2022-08-05T10:09:44.961Z,21.70
2022-08-05T10:14:47.440Z,21.80
2022-08-05T10:20:04.321Z,21.90
2022-08-05T10:25:14.214Z,22.10
2022-08-05T10:32:47.226Z,22.30
2022-08-05T10:35:40.612Z,22.50
2022-08-05T10:40:59.173Z,22.80
2022-08-05T10:46:07.064Z,22.90
2022-08-05T10:51:22.177Z,22.90
2022-08-05T10:56:28.064Z,22.80
2022-08-05T11:01:55.453Z,22.70
2022-08-05T11:07:01.360Z,23.00
2022-08-05T11:12:04.261Z,23.10
2022-08-05T11:17:57.083Z,23.00
2022-08-05T11:22:57.996Z,23.00
2022-08-05T11:28:11.459Z,23.00
2022-08-05T11:33:44.060Z,22.90
2022-08-05T11:38:52.055Z,22.70
2022-08-05T11:44:07.176Z,22.80
2022-08-05T11:49:16.460Z,22.80
2022-08-05T11:54:33.939Z,22.60
2022-08-05T11:59:49.522Z,22.50
2022-08-05T12:04:59.249Z,22.80
2022-08-05T12:10:09.083Z,23.00
2022-08-05T12:15:35.689Z,22.90
2022-08-05T12:20:41.431Z,23.30
2022-08-05T12:25:56.778Z,23.90
2022-08-05T12:31:02.301Z,24.40
2022-08-05T12:36:07.113Z,25.00
2022-08-05T12:41:14.109Z,25.40
2022-08-05T12:46:45.479Z,26.00
2022-08-05T12:52:12.353Z,26.30
2022-08-05T12:57:23.465Z,26.40
2022-08-05T13:02:30.503Z,26.60
2022-08-05T13:07:59.791Z,26.90
2022-08-05T13:12:58.272Z,27.10
2022-08-05T13:18:00.600Z,26.50
2022-08-05T13:23:07.148Z,25.70
2022-08-05T13:28:10.564Z,25.30
2022-08-05T13:33:14.334Z,25.10
2022-08-05T13:38:38.532Z,24.80
2022-08-05T13:43:54.607Z,24.50
2022-08-05T13:49:00.858Z,24.30
2022-08-05T13:54:03.242Z,24.20
2022-08-05T13:59:19.587Z,24.60
2022-08-05T14:04:41.194Z,24.90
2022-08-05T14:09:46.439Z,24.40
2022-08-05T14:14:48.963Z,24.00
2022-08-05T14:19:56.235Z,24.00
2022-08-05T14:25:06.247Z,24.20
2022-08-05T14:30:21.675Z,24.50
2022-08-05T14:35:23.990Z,24.60
2022-08-05T14:40:39.658Z,24.90
2022-08-05T14:45:45.959Z,25.10
2022-08-05T14:50:47.904Z,25.10
2022-08-05T14:55:52.651Z,24.70
2022-08-05T15:00:59.253Z,24.30
2022-08-05T15:06:08.126Z,24.30
2022-08-05T15:11:15.664Z,24.30
2022-08-05T15:16:18.184Z,24.10
2022-08-05T15:21:21.312Z,23.80
2022-08-05T15:26:31.765Z,23.60
2022-08-05T15:31:34.870Z,23.50
2022-08-05T15:36:37.122Z,23.40
2022-08-05T15:41:55.973Z,23.30
2022-08-05T15:47:04.326Z,23.20
2022-08-05T15:52:16.309Z,23.40
2022-08-05T15:57:20.028Z,23.30
2022-08-05T16:02:25.197Z,23.20
2022-08-05T16:07:29.446Z,23.00
2022-08-05T16:12:31.703Z,22.90
2022-08-05T16:17:33.957Z,22.70
2022-08-05T16:22:35.911Z,22.50
2022-08-05T16:28:00.534Z,22.30
2022-08-05T16:33:04.237Z,22.00
2022-08-05T16:38:23.760Z,21.90
2022-08-05T16:43:31.272Z,21.90
2022-08-05T16:48:35.675Z,21.70
2022-08-05T16:54:06.074Z,21.60
2022-08-05T16:59:09.130Z,21.40
2022-08-05T17:04:15.032Z,21.10
2022-08-05T17:09:17.239Z,21.00
2022-08-05T17:14:37.730Z,20.90
2022-08-05T17:19:41.720Z,20.70
2022-08-05T17:24:45.387Z,20.50
2022-08-05T17:30:00.732Z,20.30
2022-08-05T17:35:05.621Z,20.30
2022-08-05T17:40:14.854Z,20.30
2022-08-05T17:45:20.927Z,20.40
2022-08-05T17:50:30.431Z,20.60
2022-08-05T17:55:37.353Z,20.50
2022-08-05T18:00:47.168Z,20.20
2022-08-05T18:05:53.708Z,20.10
2022-08-05T18:10:56.359Z,20.00
2022-08-05T18:15:59.444Z,20.00
2022-08-05T18:21:01.635Z,19.90
2022-08-05T18:26:03.905Z,19.80
2022-08-05T18:31:07.592Z,19.70
2022-08-05T18:36:15.392Z,19.50
2022-08-05T18:41:58.405Z,19.40
2022-08-05T18:46:41.056Z,19.30
2022-08-05T18:52:08.720Z,19.20
2022-08-05T18:57:15.471Z,19.20
2022-08-05T19:02:27.116Z,19.00
2022-08-05T19:07:46.275Z,18.90
2022-08-05T19:12:49.269Z,18.80
2022-08-05T19:17:59.772Z,18.70
2022-08-05T19:24:04.235Z,18.60
2022-08-05T19:28:35.805Z,18.40
2022-08-05T19:33:38.574Z,18.20
2022-08-05T19:38:43.900Z,18.20
2022-08-05T19:44:06.072Z,18.10
2022-08-05T19:49:12.573Z,18.10
2022-08-05T19:54:26.685Z,18.00
2022-08-05T19:59:56.582Z,17.90
2022-08-05T20:04:59.916Z,17.90
2022-08-05T20:23:51.174Z,17.60
2022-08-05T20:29:27.747Z,17.40
2022-08-05T20:35:21.915Z,17.20
2022-08-05T20:46:28.132Z,17.00
2022-08-05T20:57:43.599Z,16.70
2022-08-05T22:20:01.267Z,15.90
2022-08-05T22:26:09.906Z,15.80
2022-08-05T22:37:12.757Z,15.80
2022-08-05T22:42:25.476Z,15.80
2022-08-05T22:48:03.173Z,15.80
2022-08-05T22:53:58.350Z,15.80
2022-08-05T22:59:53.840Z,15.80
2022-08-05T23:06:39.646Z,15.80
2022-08-05T23:10:59.352Z,15.80
2022-08-05T23:16:33.250Z,15.70
2022-08-05T23:28:07.208Z,15.70
2022-08-05T23:34:02.922Z,15.70
2022-08-05T23:38:52.828Z,15.70
2022-08-05T23:50:54.057Z,15.60
2022-08-05T23:56:33.456Z,15.60
